Time;durP1;ratioP1;P1;durP2;ratioP2;P2;SDS_P1;SDS_P2;PMS_P1;PMS_P2;Temp;Humidity;BMP_temperature;BMP_pressure;BME280_temperature;BME280_humidity;BME280_pressure;Samples;Min_cycle;Max_cycle;Signal;HPM_P1;HPM_P2
2023/09/04 00:00:53;;;;;;;1.20;1.00;;;;;;;16.52;100.00;100464.27;104981;1259;72699;-48
2023/09/04 00:03:21;;;;;;;4.00;1.30;;;;;;;16.54;100.00;100470.66;105355;1258;62204;-48
2023/09/04 00:05:49;;;;;;;2.90;1.20;;;;;;;16.56;100.00;100472.92;105006;1254;60010;-47
2023/09/04 00:08:17;;;;;;;1.70;1.00;;;;;;;16.58;100.00;100473.11;105117;1254;72991;-47
2023/09/04 00:10:45;;;;;;;3.70;1.20;;;;;;;16.60;100.00;100475.72;104911;1254;68566;-48
2023/09/04 00:13:12;;;;;;;1.50;1.40;;;;;;;16.60;100.00;100473.89;104994;1260;73763;-47
2023/09/04 00:15:39;;;;;;;1.50;1.40;;;;;;;16.60;100.00;100472.27;104936;1254;59678;-52
2023/09/04 00:18:07;;;;;;;2.00;1.70;;;;;;;16.60;100.00;100475.56;104844;1255;61690;-50
2023/09/04 00:20:35;;;;;;;1.90;1.20;;;;;;;16.60;100.00;100476.28;104824;1258;74098;-46
2023/09/04 00:23:02;;;;;;;2.90;1.30;;;;;;;16.59;100.00;100477.05;104977;1254;66472;-51
2023/09/04 00:25:29;;;;;;;1.50;1.10;;;;;;;16.58;100.00;100476.01;104902;1254;71256;-48
2023/09/04 00:27:57;;;;;;;1.90;1.30;;;;;;;16.58;100.00;100478.74;104858;1257;61689;-51
2023/09/04 00:30:25;;;;;;;4.50;1.10;;;;;;;16.59;100.00;100475.97;105907;1256;59525;-47
2023/09/04 00:32:52;;;;;;;1.30;0.90;;;;;;;16.60;100.00;100475.02;105629;1254;71865;-47
2023/09/04 00:35:21;;;;;;;1.80;1.10;;;;;;;16.61;100.00;100479.52;105069;1254;68042;-48
2023/09/04 00:37:48;;;;;;;1.00;0.90;;;;;;;16.61;100.00;100479.46;105075;1255;72451;-49
2023/09/04 00:40:16;;;;;;;1.10;1.00;;;;;;;16.62;100.00;100479.45;105515;1258;60439;-47
2023/09/04 00:42:44;;;;;;;1.40;1.20;;;;;;;16.63;100.00;100478.63;105123;1259;59698;-49
2023/09/04 00:45:12;;;;;;;1.30;1.00;;;;;;;16.67;100.00;100481.36;105494;1254;71544;-52
2023/09/04 00:47:40;;;;;;;1.50;1.00;;;;;;;16.68;100.00;100480.89;104906;1254;66031;-49
2023/09/04 00:50:10;;;;;;;1.60;0.90;;;;;;;16.68;100.00;100481.26;105094;1260;71454;-48
2023/09/04 00:52:37;;;;;;;1.40;1.00;;;;;;;16.67;100.00;100481.32;104887;1255;60395;-47
2023/09/04 00:55:06;;;;;;;1.70;1.30;;;;;;;16.67;100.00;100479.14;104841;1257;60382;-46
2023/09/04 00:57:34;;;;;;;1.50;1.20;;;;;;;16.66;100.00;100478.51;104816;1254;73050;-51
2023/09/04 01:00:05;;;;;;;1.30;1.20;;;;;;;16.64;100.00;100474.98;105219;1260;68163;-50
2023/09/04 01:02:33;;;;;;;1.60;1.30;;;;;;;16.61;100.00;100475.84;105085;1260;72685;-51
2023/09/04 01:05:01;;;;;;;1.90;1.10;;;;;;;16.57;100.00;100473.58;104921;1255;62217;-47
2023/09/04 01:07:28;;;;;;;1.10;1.00;;;;;;;16.52;100.00;100474.93;104762;1259;60521;-46
2023/09/04 01:09:55;;;;;;;1.50;1.40;;;;;;;16.50;100.00;100477.46;104393;1254;72575;-48
2023/09/04 01:12:33;;;;;;;2.10;1.30;;;;;;;16.49;100.00;100477.13;104797;1260;67676;-47
2023/09/04 01:15:02;;;;;;;1.40;1.10;;;;;;;16.50;100.00;100480.87;104586;1263;71436;-47
2023/09/04 01:17:29;;;;;;;1.30;1.10;;;;;;;16.51;100.00;100479.55;106394;1257;61809;-48
2023/09/04 01:19:57;;;;;;;1.10;0.90;;;;;;;16.53;100.00;100478.55;106484;1254;60338;-47
2023/09/04 01:22:26;;;;;;;1.00;0.90;;;;;;;16.53;100.00;100475.42;105867;1259;72565;-46
2023/09/04 01:24:53;;;;;;;1.10;0.90;;;;;;;16.55;100.00;100474.05;104945;1254;65938;-47
2023/09/04 01:27:27;;;;;;;2.20;1.00;;;;;;;16.57;100.00;100476.30;104810;1254;72637;-48
2023/09/04 01:30:18;;;;;;;1.50;1.00;;;;;;;16.60;100.00;100477.20;105003;1256;60495;-48
2023/09/04 01:32:55;;;;;;;1.50;1.10;;;;;;;16.62;100.00;100477.23;104802;1261;62652;-47
2023/09/04 01:35:22;;;;;;;1.40;1.30;;;;;;;16.63;100.00;100477.39;104808;1260;73897;-52
2023/09/04 01:37:51;;;;;;;1.40;1.20;;;;;;;16.62;100.00;100476.88;104831;1254;68620;-49
2023/09/04 01:40:20;;;;;;;1.60;1.20;;;;;;;16.60;100.00;100474.46;105299;1254;71823;-49
2023/09/04 01:42:47;;;;;;;6.20;1.40;;;;;;;16.58;100.00;100472.61;104779;1261;61650;-48
2023/09/04 01:45:14;;;;;;;1.10;0.90;;;;;;;16.54;100.00;100471.73;104937;1259;60669;-51
2023/09/04 01:47:42;;;;;;;2.30;0.90;;;;;;;16.52;100.00;100470.95;104961;1259;73787;-50
2023/09/04 01:50:09;;;;;;;2.60;1.00;;;;;;;16.51;100.00;100469.92;104856;1269;66821;-49
2023/09/04 01:52:37;;;;;;;1.40;0.90;;;;;;;16.52;100.00;100474.73;104869;1256;72660;-50
2023/09/04 01:55:06;;;;;;;1.30;1.00;;;;;;;16.51;100.00;100478.42;108971;1254;62117;-50
2023/09/04 01:57:33;;;;;;;1.70;0.90;;;;;;;16.51;100.00;100478.42;108912;1257;59255;-50
2023/09/04 02:00:01;;;;;;;1.00;0.90;;;;;;;16.52;100.00;100481.83;106552;1256;74844;-51
2023/09/04 02:02:28;;;;;;;0.90;0.80;;;;;;;16.52;100.00;100483.45;104952;1257;67260;-49
2023/09/04 02:04:56;;;;;;;2.10;1.00;;;;;;;16.54;100.00;100488.09;108774;1254;71471;-50
2023/09/04 02:07:24;;;;;;;3.60;1.10;;;;;;;16.56;100.00;100488.51;108944;1254;58864;-50
2023/09/04 02:09:51;;;;;;;1.80;1.10;;;;;;;16.57;100.00;100489.12;108892;1256;60063;-50
2023/09/04 02:12:18;;;;;;;1.40;1.30;;;;;;;16.57;100.00;100487.35;108900;1254;73879;-49
2023/09/04 02:14:45;;;;;;;2.10;1.70;;;;;;;16.54;100.00;100488.44;108885;1254;67613;-50
2023/09/04 02:17:13;;;;;;;1.30;1.20;;;;;;;16.50;100.00;100486.29;108813;1255;72904;-50
2023/09/04 02:19:40;;;;;;;2.00;1.20;;;;;;;16.48;100.00;100482.13;109007;1256;61689;-50
2023/09/04 02:22:09;;;;;;;3.60;1.00;;;;;;;16.44;100.00;100479.80;108943;1254;59054;-50
2023/09/04 02:24:36;;;;;;;1.70;0.90;;;;;;;16.41;100.00;100480.90;108947;1254;73822;-50
2023/09/04 02:27:04;;;;;;;2.50;0.90;;;;;;;16.41;100.00;100475.67;108938;1255;67072;-50
2023/09/04 02:29:31;;;;;;;3.90;1.00;;;;;;;16.41;100.00;100473.27;108835;1254;71404;-50
2023/09/04 02:31:58;;;;;;;2.70;1.50;;;;;;;16.43;100.00;100472.96;108991;1256;61670;-50
2023/09/04 02:34:26;;;;;;;2.30;1.00;;;;;;;16.43;100.00;100473.32;107104;1257;59285;-51
2023/09/04 02:36:53;;;;;;;2.70;1.00;;;;;;;16.45;100.00;100472.52;104774;1254;72038;-51
2023/09/04 02:39:21;;;;;;;1.40;1.30;;;;;;;16.47;100.00;100473.13;104844;1256;65804;-51
2023/09/04 02:41:48;;;;;;;1.40;0.90;;;;;;;16.48;100.00;100468.69;104746;1257;72625;-49
2023/09/04 02:44:16;;;;;;;3.00;1.00;;;;;;;16.51;100.00;100469.41;105717;1259;61658;-50
2023/09/04 02:46:44;;;;;;;2.00;1.00;;;;;;;16.53;100.00;100469.48;104840;1254;60450;-50
2023/09/04 02:49:11;;;;;;;1.50;1.20;;;;;;;16.54;100.00;100471.38;104637;1260;73859;-49
2023/09/04 02:51:38;;;;;;;1.90;1.20;;;;;;;16.55;100.00;100471.54;104572;1260;67434;-49
2023/09/04 02:54:05;;;;;;;1.40;1.20;;;;;;;16.55;100.00;100469.70;104819;1260;72677;-49
2023/09/04 02:56:33;;;;;;;1.60;1.50;;;;;;;16.55;100.00;100470.27;106589;1256;60517;-49
2023/09/04 02:59:01;;;;;;;1.20;1.10;;;;;;;16.54;100.00;100473.02;104800;1256;60788;-50
2023/09/04 03:01:29;;;;;;;3.70;1.30;;;;;;;16.54;100.00;100476.33;104936;1254;74279;-50
2023/09/04 03:03:56;;;;;;;1.40;1.20;;;;;;;16.54;100.00;100473.21;105022;1254;66305;-49
2023/09/04 03:06:24;;;;;;;1.70;1.20;;;;;;;16.54;100.00;100481.36;104670;1256;71860;-49
2023/09/04 03:08:51;;;;;;;1.80;1.10;;;;;;;16.53;100.00;100479.98;104935;1257;61696;-50
2023/09/04 03:11:19;;;;;;;2.80;1.10;;;;;;;16.52;100.00;100478.40;104512;1254;62218;-49
2023/09/04 03:13:47;;;;;;;1.90;1.00;;;;;;;16.51;100.00;100476.28;104803;1256;72723;-50
2023/09/04 03:16:14;;;;;;;1.60;1.00;;;;;;;16.48;100.00;100475.60;104762;1260;65524;-48
2023/09/04 03:18:41;;;;;;;5.00;1.10;;;;;;;16.44;100.00;100479.43;105230;1259;71454;-50
2023/09/04 03:21:09;;;;;;;3.30;1.20;;;;;;;16.41;100.00;100476.72;105019;1255;61632;-50
2023/09/04 03:23:37;;;;;;;1.70;1.10;;;;;;;16.41;100.00;100476.23;105079;1254;60533;-49
2023/09/04 03:26:04;;;;;;;1.30;1.10;;;;;;;16.40;100.00;100473.89;104827;1256;73831;-49
2023/09/04 03:28:33;;;;;;;1.70;1.30;;;;;;;16.40;100.00;100481.48;105042;1258;66950;-49
2023/09/04 03:31:01;;;;;;;2.40;1.50;;;;;;;16.39;100.00;100482.45;105298;1259;73670;-49
2023/09/04 03:33:29;;;;;;;1.40;1.30;;;;;;;16.41;100.00;100483.48;104793;1256;60540;-49
2023/09/04 03:35:57;;;;;;;1.30;1.10;;;;;;;16.42;100.00;100485.94;104984;1264;60613;-48
2023/09/04 03:38:25;;;;;;;2.50;1.20;;;;;;;16.42;100.00;100484.61;104873;1254;74234;-50
2023/09/04 03:40:52;;;;;;;3.60;1.50;;;;;;;16.43;100.00;100489.08;104946;1260;66425;-50
2023/09/04 03:43:20;;;;;;;1.20;1.10;;;;;;;16.43;100.00;100489.08;105121;1254;74944;-51
2023/09/04 03:45:47;;;;;;;2.00;1.20;;;;;;;16.44;100.00;100489.97;105086;1252;62153;-51
2023/09/04 03:48:14;;;;;;;1.20;1.10;;;;;;;16.45;100.00;100488.08;105024;1255;61141;-49
2023/09/04 03:50:42;;;;;;;2.70;1.20;;;;;;;16.46;100.00;100482.41;104915;1254;74319;-49
2023/09/04 03:53:09;;;;;;;4.30;1.10;;;;;;;16.47;100.00;100485.09;105049;1256;65510;-51
2023/09/04 03:55:37;;;;;;;1.10;1.00;;;;;;;16.47;100.00;100481.45;105030;1257;71395;-49
2023/09/04 03:58:04;;;;;;;1.20;1.10;;;;;;;16.46;100.00;100488.39;105227;1254;65344;-50
2023/09/04 04:00:32;;;;;;;1.20;1.10;;;;;;;16.45;100.00;100482.30;105086;1254;60637;-51
2023/09/04 04:03:00;;;;;;;5.00;1.00;;;;;;;16.47;100.00;100480.37;104963;1254;72575;-50
2023/09/04 04:05:29;;;;;;;1.80;1.10;;;;;;;16.49;100.00;100476.41;104787;1254;66719;-51
2023/09/04 04:07:56;;;;;;;1.20;1.00;;;;;;;16.52;100.00;100480.59;104719;1260;72435;-50
2023/09/04 04:10:24;;;;;;;1.20;1.00;;;;;;;16.53;100.00;100482.52;104561;1260;62309;-50
2023/09/04 04:12:53;;;;;;;1.80;1.20;;;;;;;16.53;100.00;100484.48;105057;1259;60483;-49
2023/09/04 04:15:21;;;;;;;2.30;1.30;;;;;;;16.54;100.00;100488.77;105381;1259;73742;-51
2023/09/04 04:17:48;;;;;;;4.30;1.40;;;;;;;16.57;100.00;100491.16;105092;1254;65446;-51
2023/09/04 04:20:17;;;;;;;6.10;1.40;;;;;;;16.59;100.00;100491.54;105657;1259;72688;-51
2023/09/04 04:22:44;;;;;;;2.10;1.30;;;;;;;16.63;100.00;100492.99;105081;1258;60583;-49
2023/09/04 04:25:12;;;;;;;3.90;1.10;;;;;;;16.67;100.00;100497.67;104813;1254;60425;-51
2023/09/04 04:27:41;;;;;;;1.90;1.20;;;;;;;16.70;100.00;100493.10;104646;1254;73814;-51
2023/09/04 04:30:09;;;;;;;2.60;1.50;;;;;;;16.75;100.00;100492.80;104738;1254;66960;-50
2023/09/04 04:32:37;;;;;;;2.40;1.50;;;;;;;16.78;100.00;100489.86;104644;1257;74290;-51
2023/09/04 04:35:07;;;;;;;1.60;0.90;;;;;;;16.83;100.00;100490.30;104715;1256;62737;-51
2023/09/04 04:37:35;;;;;;;2.30;1.10;;;;;;;16.89;100.00;100491.72;105133;1253;60633;-49
2023/09/04 04:40:04;;;;;;;1.40;1.30;;;;;;;16.99;100.00;100487.78;104839;1260;73859;-49
2023/09/04 04:42:33;;;;;;;1.20;1.10;;;;;;;17.11;100.00;100493.39;104920;1256;67368;-50
2023/09/04 04:45:02;;;;;;;2.10;1.40;;;;;;;17.22;100.00;100488.00;106245;1258;72756;-51
2023/09/04 04:47:30;;;;;;;2.20;1.30;;;;;;;17.30;100.00;100490.33;105117;1255;60539;-50
2023/09/04 04:49:58;;;;;;;1.40;1.30;;;;;;;17.39;100.00;100488.35;109048;1254;60703;-49
2023/09/04 04:52:25;;;;;;;1.50;1.30;;;;;;;17.45;100.00;100493.92;105523;1255;73892;-49
2023/09/04 04:54:53;;;;;;;1.30;1.10;;;;;;;17.50;100.00;100494.31;104879;1254;66816;-51
2023/09/04 04:57:20;;;;;;;1.40;1.10;;;;;;;17.54;100.00;100497.17;104986;1254;72500;-50
2023/09/04 04:59:48;;;;;;;1.30;0.80;;;;;;;17.56;100.00;100495.36;109088;1254;60468;-52
2023/09/04 05:02:20;;;;;;;1.80;1.00;;;;;;;17.59;100.00;100500.61;109027;1253;60030;-52
2023/09/04 05:04:48;;;;;;;4.10;1.10;;;;;;;17.63;100.00;100501.14;109031;1253;74363;-52
2023/09/04 05:07:18;;;;;;;1.90;1.10;;;;;;;17.66;100.00;100506.38;108853;1254;66787;-52
2023/09/04 05:09:51;;;;;;;2.40;1.10;;;;;;;17.69;100.00;100502.91;109126;1254;72478;-53
2023/09/04 05:12:20;;;;;;;4.00;0.90;;;;;;;17.71;100.00;100504.57;109016;1254;60038;-52
2023/09/04 05:14:47;;;;;;;3.60;1.00;;;;;;;17.73;100.00;100505.33;109130;1252;58742;-52
2023/09/04 05:17:14;;;;;;;1.80;1.20;;;;;;;17.75;100.00;100507.18;109110;1254;74254;-52
2023/09/04 05:19:46;;;;;;;2.10;1.10;;;;;;;17.78;100.00;100509.93;109067;1253;66308;-52
2023/09/04 05:22:14;;;;;;;3.30;1.20;;;;;;;17.80;100.00;100513.27;108963;1256;72747;-50
2023/09/04 05:24:42;;;;;;;2.00;1.00;;;;;;;17.81;100.00;100514.60;108904;1253;62159;-49
2023/09/04 05:27:10;;;;;;;4.40;0.90;;;;;;;17.83;100.00;100514.16;108987;1254;61013;-49
2023/09/04 05:29:37;;;;;;;3.60;1.10;;;;;;;17.85;100.00;100517.13;108787;1254;74297;-50
2023/09/04 05:32:05;;;;;;;1.40;1.00;;;;;;;17.87;100.00;100516.75;109009;1254;66336;-49
2023/09/04 05:34:32;;;;;;;1.40;1.00;;;;;;;17.91;100.00;100524.31;105182;1254;71464;-51
2023/09/04 05:37:00;;;;;;;3.00;1.00;;;;;;;17.95;100.00;100527.69;104773;1257;61470;-48
2023/09/04 05:39:27;;;;;;;1.40;1.20;;;;;;;18.00;100.00;100528.78;104658;1259;61051;-50
2023/09/04 05:41:54;;;;;;;3.80;1.20;;;;;;;18.03;100.00;100529.31;104893;1253;73774;-51
2023/09/04 05:44:22;;;;;;;1.20;1.00;;;;;;;18.06;100.00;100527.42;104848;1254;67209;-50
2023/09/04 05:46:49;;;;;;;1.30;1.10;;;;;;;18.09;100.00;100528.02;104736;1254;73107;-51
2023/09/04 05:49:17;;;;;;;4.90;1.30;;;;;;;18.12;100.00;100533.24;105469;1254;60549;-51
2023/09/04 05:51:44;;;;;;;2.50;1.60;;;;;;;18.15;100.00;100538.11;104832;1253;60607;-51
2023/09/04 05:54:11;;;;;;;3.60;1.20;;;;;;;18.18;100.00;100537.58;105030;1257;72592;-50
2023/09/04 05:56:39;;;;;;;1.30;1.20;;;;;;;18.21;100.00;100537.23;104631;1253;67394;-50
2023/09/04 05:59:07;;;;;;;4.10;1.50;;;;;;;18.23;100.00;100538.70;104772;1256;74608;-51
2023/09/04 06:01:34;;;;;;;3.60;1.00;;;;;;;18.25;100.00;100542.02;104615;1253;61764;-49
2023/09/04 06:04:01;;;;;;;1.70;1.00;;;;;;;18.28;100.00;100546.17;104976;1254;60542;-50
2023/09/04 06:06:29;;;;;;;3.40;1.10;;;;;;;18.31;100.00;100546.11;104882;1258;75917;-50
2023/09/04 06:08:57;;;;;;;1.50;1.20;;;;;;;18.36;100.00;100545.09;105089;1259;66905;-51
2023/09/04 06:11:24;;;;;;;3.80;1.70;;;;;;;18.40;100.00;100548.95;104693;1256;70158;-49
2023/09/04 06:13:52;;;;;;;2.20;1.20;;;;;;;18.45;100.00;100547.71;104839;1254;60492;-50
2023/09/04 06:16:19;;;;;;;1.70;1.10;;;;;;;18.49;100.00;100551.04;105031;1259;60531;-50
2023/09/04 06:18:46;;;;;;;3.70;1.10;;;;;;;18.53;100.00;100552.43;105920;1254;72655;-49
2023/09/04 06:21:14;;;;;;;8.80;1.30;;;;;;;18.56;100.00;100549.14;104808;1254;68024;-49
2023/09/04 06:23:41;;;;;;;1.90;1.30;;;;;;;18.58;100.00;100550.88;104988;1254;71522;-50
2023/09/04 06:26:08;;;;;;;6.60;1.40;;;;;;;18.59;100.00;100548.45;104871;1254;60453;-50
2023/09/04 06:28:36;;;;;;;3.90;1.30;;;;;;;18.61;100.00;100557.58;104497;1254;60562;-50
2023/09/04 06:31:03;;;;;;;2.90;1.40;;;;;;;18.61;100.00;100556.63;104868;1254;74123;-49
2023/09/04 06:33:34;;;;;;;4.50;1.20;;;;;;;18.61;100.00;100559.91;105324;1254;68025;-49
2023/09/04 06:36:03;;;;;;;2.60;1.10;;;;;;;18.60;100.00;100564.55;104849;1254;73947;-51
2023/09/04 06:38:31;;;;;;;1.70;1.00;;;;;;;18.60;100.00;100566.94;105931;1254;61702;-50
2023/09/04 06:40:58;;;;;;;3.00;1.00;;;;;;;18.61;100.00;100564.67;104846;1253;60617;-49
2023/09/04 06:43:27;;;;;;;2.30;1.20;;;;;;;18.65;100.00;100569.06;104857;1254;75085;-49
2023/09/04 06:45:54;;;;;;;6.00;1.10;;;;;;;18.71;100.00;100564.89;105207;1254;66946;-49
2023/09/04 06:48:22;;;;;;;3.40;1.20;;;;;;;18.76;100.00;100567.40;108798;1254;72680;-50
2023/09/04 06:50:50;;;;;;;3.50;1.40;;;;;;;18.81;100.00;100570.67;108328;1254;62392;-49
2023/09/04 06:53:18;;;;;;;1.50;1.20;;;;;;;18.86;100.00;100572.52;105048;1257;60505;-48
2023/09/04 06:55:47;;;;;;;5.90;1.40;;;;;;;18.92;100.00;100578.45;104626;1256;73814;-49
2023/09/04 06:58:14;;;;;;;2.90;1.20;;;;;;;18.99;100.00;100581.86;108462;1254;67859;-50
2023/09/04 07:00:42;;;;;;;4.60;1.20;;;;;;;19.05;100.00;100580.84;105325;1259;71917;-50
2023/09/04 07:03:09;;;;;;;3.90;1.00;;;;;;;19.11;100.00;100580.02;104733;1258;60413;-51
2023/09/04 07:05:37;;;;;;;4.80;1.20;;;;;;;19.20;100.00;100582.50;105148;1254;60563;-51
2023/09/04 07:08:04;;;;;;;4.50;0.90;;;;;;;19.30;100.00;100586.73;105010;1252;73749;-48
2023/09/04 07:10:32;;;;;;;2.40;1.40;;;;;;;19.39;100.00;100586.98;105753;1258;67234;-51
2023/09/04 07:13:00;;;;;;;2.10;0.90;;;;;;;19.46;100.00;100589.21;104917;1254;72624;-51
2023/09/04 07:15:28;;;;;;;2.10;0.80;;;;;;;19.52;100.00;100590.41;104975;1255;61471;-49
2023/09/04 07:17:58;;;;;;;7.50;1.50;;;;;;;19.58;100.00;100594.16;104824;1254;60493;-50
2023/09/04 07:20:28;;;;;;;1.80;0.90;;;;;;;19.65;100.00;100592.95;108814;1253;74812;-51
2023/09/04 07:22:56;;;;;;;1.80;0.90;;;;;;;19.71;100.00;100593.21;106747;1254;67586;-51
2023/09/04 07:25:40;;;;;;;;;;;;;;;19.77;100.00;100593.17;104795;1258;72579;-51
2023/09/04 07:28:08;;;;;;;1.70;0.80;;;;;;;19.79;100.00;100594.08;104970;1253;61972;-50
2023/09/04 07:30:35;;;;;;;1.50;0.70;;;;;;;19.82;100.00;100596.63;104997;1259;60550;-50
2023/09/04 07:33:03;;;;;;;5.00;0.80;;;;;;;19.85;100.00;100598.04;104952;1254;73836;-50
2023/09/04 07:35:30;;;;;;;3.30;1.00;;;;;;;19.88;100.00;100599.09;105131;1254;65974;-51
2023/09/04 07:37:58;;;;;;;3.70;1.00;;;;;;;19.92;100.00;100600.08;104727;1259;72502;-50
2023/09/04 07:40:25;;;;;;;4.30;1.00;;;;;;;19.94;100.00;100597.73;109009;1253;59532;-52
2023/09/04 07:42:54;;;;;;;3.10;0.90;;;;;;;19.96;100.00;100598.52;105934;1254;60403;-51
2023/09/04 07:45:23;;;;;;;5.20;0.90;;;;;;;19.97;100.00;100598.56;104645;1259;73892;-50
2023/09/04 07:47:51;;;;;;;5.50;1.20;;;;;;;20.01;100.00;100599.89;108891;1254;66884;-51
2023/09/04 07:50:19;;;;;;;1.70;0.90;;;;;;;20.05;100.00;100597.10;108769;1255;70138;-52
2023/09/04 07:52:46;;;;;;;3.20;0.90;;;;;;;20.08;100.00;100600.15;108935;1254;58856;-50
2023/09/04 07:55:13;;;;;;;4.40;1.50;;;;;;;20.12;100.00;100602.79;108914;1256;58783;-50
2023/09/04 07:57:43;;;;;;;1.60;1.10;;;;;;;20.18;100.00;100605.58;108930;1254;72552;-50
2023/09/04 08:00:11;;;;;;;1.90;1.00;;;;;;;20.24;100.00;100609.30;108870;1254;66279;-50
2023/09/04 08:02:43;;;;;;;5.00;1.60;;;;;;;20.30;100.00;100609.57;108792;1254;71208;-49
2023/09/04 08:05:10;;;;;;;2.90;1.00;;;;;;;20.36;100.00;100610.77;109037;1254;58420;-50
2023/09/04 08:07:38;;;;;;;2.70;0.70;;;;;;;20.42;100.00;100612.21;108934;1254;59143;-49
2023/09/04 08:10:05;;;;;;;3.60;1.00;;;;;;;20.47;100.00;100616.58;108915;1254;72614;-50
2023/09/04 08:12:32;;;;;;;4.60;0.90;;;;;;;20.51;100.00;100620.41;109075;1254;67549;-49
2023/09/04 08:15:00;;;;;;;1.50;0.90;;;;;;;20.58;100.00;100618.09;108891;1254;72676;-50
2023/09/04 08:17:29;;;;;;;1.20;0.70;;;;;;;20.66;100.00;100617.98;108995;1254;60051;-50
2023/09/04 08:19:57;;;;;;;4.10;0.80;;;;;;;20.74;100.00;100619.20;108916;1254;58906;-50
2023/09/04 08:22:24;;;;;;;1.60;0.80;;;;;;;20.81;100.00;100619.75;108845;1254;73764;-50
2023/09/04 08:24:54;;;;;;;0.70;0.60;;;;;;;20.88;100.00;100616.49;108866;1254;67894;-49
2023/09/04 08:27:21;;;;;;;1.80;0.70;;;;;;;20.95;100.00;100615.22;108907;1254;74633;-50
2023/09/04 08:29:50;;;;;;;1.40;0.80;;;;;;;21.01;100.00;100614.58;108896;1254;60741;-50
2023/09/04 08:32:17;;;;;;;2.70;0.80;;;;;;;21.11;100.00;100606.25;108923;1254;59990;-50
2023/09/04 08:34:45;;;;;;;3.20;0.70;;;;;;;21.23;100.00;100607.20;108687;1256;75634;-51
2023/09/04 08:37:12;;;;;;;1.90;0.60;;;;;;;21.33;100.00;100613.13;106659;1254;65026;-52
2023/09/04 08:39:39;;;;;;;5.30;0.70;;;;;;;21.41;100.00;100615.40;104317;1259;74789;-52
2023/09/04 08:42:07;;;;;;;2.70;1.20;;;;;;;21.47;100.00;100618.80;104817;1257;60454;-49
2023/09/04 08:44:35;;;;;;;1.50;0.70;;;;;;;21.49;100.00;100616.06;106682;1254;60527;-48
2023/09/04 08:47:04;;;;;;;2.80;0.80;;;;;;;21.50;100.00;100619.11;104752;1254;72989;-49
2023/09/04 08:49:31;;;;;;;2.20;0.90;;;;;;;21.50;100.00;100620.38;104817;1257;68769;-50
2023/09/04 08:51:58;;;;;;;1.10;0.60;;;;;;;21.48;100.00;100618.85;104644;1254;74713;-51
2023/09/04 08:54:26;;;;;;;0.80;0.50;;;;;;;21.48;100.00;100620.50;104831;1257;61069;-51
2023/09/04 08:56:53;;;;;;;2.60;0.60;;;;;;;21.48;100.00;100616.16;104407;1254;333218;-50
2023/09/04 09:00:00;;;;;;;6.60;0.60;;;;;;;21.51;100.00;100679.42;102014;1295;600573;-50
2023/09/04 09:02:28;;;;;;;4.00;0.60;;;;;;;21.52;100.00;100667.33;104009;1270;59432;-52
2023/09/04 09:04:59;;;;;;;2.10;0.60;;;;;;;21.54;100.00;100662.95;104762;1267;60573;-51
2023/09/04 09:07:29;;;;;;;2.40;0.70;;;;;;;21.55;100.00;100660.34;103953;1270;72776;-52
2023/09/04 09:10:02;;;;;;;1.70;0.70;;;;;;;21.56;100.00;100658.23;104085;1267;66723;-52
2023/09/04 09:12:30;;;;;;;1.50;0.60;;;;;;;21.58;100.00;100662.10;107181;1267;211340;-48
2023/09/04 09:15:00;;;;;;;1.30;0.60;;;;;;;21.60;100.00;100659.73;104282;1267;59388;-49
2023/09/04 09:17:29;;;;;;;1.30;0.70;;;;;;;21.60;100.00;100656.80;104228;1267;60011;-51
2023/09/04 09:19:57;;;;;;;2.20;0.60;;;;;;;21.60;100.00;100661.95;104175;1263;72027;-49
2023/09/04 09:22:24;;;;;;;1.00;0.70;;;;;;;21.59;100.00;100662.36;104225;1267;67205;-50
2023/09/04 09:24:56;;;;;;;2.20;0.70;;;;;;;21.62;100.00;100667.99;104111;1264;72400;-51
2023/09/04 09:27:24;;;;;;;0.90;0.60;;;;;;;21.63;100.00;100666.95;104213;1263;60169;-50
2023/09/04 09:29:55;;;;;;;1.10;0.70;;;;;;;21.67;100.00;100667.20;104266;1264;60202;-48
2023/09/04 09:32:22;;;;;;;1.90;0.70;;;;;;;21.72;100.00;100666.99;104508;1268;72182;-50
2023/09/04 09:34:50;;;;;;;1.10;0.70;;;;;;;21.78;100.00;100668.30;103812;1263;69312;-51
2023/09/04 09:37:19;;;;;;;0.80;0.60;;;;;;;21.86;100.00;100667.69;105751;1257;71231;-51
2023/09/04 09:39:46;;;;;;;3.60;0.80;;;;;;;21.90;100.00;100668.80;104748;1258;60170;-50
2023/09/04 09:42:13;;;;;;;0.80;0.60;;;;;;;21.91;100.00;100664.70;104819;1254;62267;-49
2023/09/04 09:44:41;;;;;;;2.20;0.60;;;;;;;21.98;100.00;100668.04;104801;1254;73788;-51
2023/09/04 09:47:12;;;;;;;4.10;0.60;;;;;;;22.01;100.00;100670.33;104729;1261;67524;-50
2023/09/04 09:49:40;;;;;;;1.50;0.50;;;;;;;22.03;100.00;100673.28;104664;1257;74467;-50
2023/09/04 09:52:08;;;;;;;1.60;0.70;;;;;;;22.02;100.00;100675.73;104835;1262;59728;-51
2023/09/04 09:54:36;;;;;;;1.10;0.60;;;;;;;22.03;100.00;100678.39;104679;1260;59775;-50
2023/09/04 09:57:07;;;;;;;2.20;0.80;;;;;;;22.01;100.00;100676.58;104618;1260;71163;-50
2023/09/04 09:59:36;;;;;;;2.20;1.10;;;;;;;21.98;100.00;100674.78;104679;1256;64840;-51
2023/09/04 10:02:04;;;;;;;1.00;0.80;;;;;;;21.96;100.00;100676.36;105013;1257;72421;-50
2023/09/04 10:04:32;;;;;;;1.00;0.60;;;;;;;21.94;100.00;100677.12;104666;1257;59589;-50
2023/09/04 10:07:00;;;;;;;1.80;0.60;;;;;;;21.91;100.00;100676.94;104695;1257;59633;-50
2023/09/04 10:09:29;;;;;;;2.00;0.70;;;;;;;21.90;100.00;100677.92;105624;1260;71198;-48
2023/09/04 10:12:02;;;;;;;1.50;0.50;;;;;;;21.88;100.00;100676.05;105628;1257;64951;-50
2023/09/04 10:14:33;;;;;;;1.50;0.50;;;;;;;21.88;100.00;100676.96;104820;1263;72437;-50
2023/09/04 10:17:01;;;;;;;0.60;0.60;;;;;;;21.90;100.00;100677.73;104642;1257;59755;-50
2023/09/04 10:19:30;;;;;;;1.60;0.50;;;;;;;21.94;100.00;100680.75;104723;1258;62638;-47
2023/09/04 10:22:03;;;;;;;1.90;0.60;;;;;;;21.98;100.00;100682.27;105051;1258;72020;-49
2023/09/04 10:24:55;;;;;;;0.90;0.60;;;;;;;22.02;100.00;100684.70;104851;1261;65670;-49
2023/09/04 10:27:23;;;;;;;1.60;0.60;;;;;;;22.06;100.00;100692.74;104835;1257;72431;-50
2023/09/04 10:29:54;;;;;;;1.20;0.50;;;;;;;22.10;100.00;100691.55;104737;1259;59691;-51
2023/09/04 10:32:22;;;;;;;1.10;0.70;;;;;;;22.13;100.00;100691.09;104568;1261;60394;-49
2023/09/04 10:34:49;;;;;;;3.90;0.80;;;;;;;22.15;100.00;100686.38;104473;1264;73046;-50
2023/09/04 10:37:16;;;;;;;2.00;0.60;;;;;;;22.14;100.00;100685.11;104642;1258;66281;-50
2023/09/04 10:39:44;;;;;;;2.70;0.70;;;;;;;22.14;100.00;100686.95;104607;1258;71701;-50
2023/09/04 10:42:16;;;;;;;0.90;0.70;;;;;;;22.14;100.00;100684.41;106086;1254;59744;-49
2023/09/04 10:44:44;;;;;;;1.20;0.70;;;;;;;22.16;100.00;100683.55;104731;1254;59806;-51
2023/09/04 10:47:13;;;;;;;1.70;0.60;;;;;;;22.19;100.00;100681.98;104896;1257;73099;-51
2023/09/04 10:49:44;;;;;;;1.50;0.70;;;;;;;22.21;100.00;100679.96;106116;1257;67047;-50
2023/09/04 10:52:11;;;;;;;6.20;0.70;;;;;;;22.23;100.00;100688.25;104996;1251;75273;-51
2023/09/04 10:54:39;;;;;;;2.50;0.70;;;;;;;22.23;100.00;100683.66;105188;1254;60118;-50
2023/09/04 10:57:11;;;;;;;0.90;0.50;;;;;;;22.24;100.00;100683.40;109029;1253;58885;-51
2023/09/04 10:59:53;;;;;;;3.10;0.70;;;;;;;22.28;100.00;100685.45;109138;1253;73090;-50
2023/09/04 11:02:29;;;;;;;2.90;0.70;;;;;;;22.35;100.00;100687.27;109150;1253;66264;-51
2023/09/04 11:04:57;;;;;;;0.90;0.60;;;;;;;22.41;100.00;100684.71;109246;1253;70860;-51
2023/09/04 11:07:25;;;;;;;1.50;0.60;;;;;;;22.47;100.00;100689.52;108916;1253;58908;-51
2023/09/04 11:09:58;;;;;;;0.70;0.60;;;;;;;22.54;100.00;100688.04;109093;1256;59281;-52
2023/09/04 11:12:26;;;;;;;1.10;0.70;;;;;;;22.61;100.00;100691.27;109125;1253;73256;-51
2023/09/04 11:14:54;;;;;;;1.00;0.60;;;;;;;22.69;100.00;100696.64;109080;1254;65640;-51